Time;durP1;ratioP1;P1;durP2;ratioP2;P2;SDS_P1;SDS_P2;PMS_P1;PMS_P2;Temp;Humidity;BMP_temperature;BMP_pressure;BME280_temperature;BME280_humidity;BME280_pressure;Samples;Min_cycle;Max_cycle;Signal;HPM_P1;HPM_P2
2022/05/26 00:00:32;;;;;;;33.65;9.50;;;13.80;99.90;;;;;;4977014;28;20051;-92
2022/05/26 00:02:58;;;;;;;33.95;9.07;;;13.80;99.90;;;;;;4960333;28;20137;-92
2022/05/26 00:05:24;;;;;;;31.92;9.02;;;14.20;99.90;;;;;;4959875;28;20060;-90
2022/05/26 00:07:50;;;;;;;35.85;9.45;;;14.10;99.90;;;;;;4960556;28;20046;-89
2022/05/26 00:10:16;;;;;;;30.25;9.05;;;13.80;99.90;;;;;;4960592;28;20042;-90
2022/05/26 00:12:42;;;;;;;32.92;8.98;;;13.80;99.90;;;;;;4962587;28;20100;-89
2022/05/26 00:15:08;;;;;;;29.52;9.10;;;14.50;99.90;;;;;;4983406;28;20073;-89
2022/05/26 00:17:34;;;;;;;36.53;10.00;;;13.80;99.90;;;;;;4960307;28;20514;-90
2022/05/26 00:20:00;;;;;;;34.55;9.55;;;13.90;99.90;;;;;;4976447;28;20080;-89
2022/05/26 00:22:26;;;;;;;39.13;10.18;;;13.80;99.90;;;;;;4960466;28;20099;-90
2022/05/26 00:24:55;;;;;;;31.83;9.05;;;13.80;99.90;;;;;;4976469;28;20397;-90
2022/05/26 00:27:20;;;;;;;35.95;9.88;;;13.80;99.90;;;;;;4960875;28;20078;-91
2022/05/26 00:29:46;;;;;;;34.22;9.25;;;13.80;99.90;;;;;;4960556;28;20097;-89
2022/05/26 00:32:12;;;;;;;39.13;9.80;;;13.70;99.90;;;;;;4959906;28;20057;-90
2022/05/26 00:34:37;;;;;;;37.45;8.85;;;13.70;99.90;;;;;;4959951;28;20049;-90
2022/05/26 00:37:07;;;;;;;35.53;8.73;;;13.70;99.90;;;;;;4959843;28;20055;-89
2022/05/26 00:39:33;;;;;;;40.05;8.98;;;13.70;99.90;;;;;;4976053;28;20137;-89
2022/05/26 00:42:03;;;;;;;32.45;9.00;;;13.90;99.90;;;;;;4960196;28;20469;-92
2022/05/26 00:44:30;;;;;;;42.58;9.68;;;13.70;99.90;;;;;;4959967;28;20042;-90
2022/05/26 00:47:17;;;;;;;42.17;9.25;;;13.70;99.90;;;;;;4960171;28;20405;-90
2022/05/26 00:49:45;;;;;;;29.90;8.50;;;13.70;99.90;;;;;;4959814;28;20101;-91
2022/05/26 00:52:42;;;;;;;39.45;9.82;;;13.70;99.90;;;;;;4960377;28;20493;-91
2022/05/26 00:55:20;;;;;;;47.00;9.55;;;13.60;99.90;;;;;;4974329;28;20050;-89
2022/05/26 00:58:15;;;;;;;38.13;9.85;;;13.60;99.90;;;;;;4944005;28;20222;-91
2022/05/26 01:00:41;;;;;;;39.65;8.80;;;13.60;99.90;;;;;;4957824;28;20396;-91
2022/05/26 01:03:25;;;;;;;42.72;10.63;;;13.60;99.90;;;;;;4959668;28;20053;-90
2022/05/26 01:08:29;;;;;;;41.80;9.18;;;13.60;99.90;;;;;;5043369;23;20081;-82
2022/05/26 01:10:54;;;;;;;42.30;9.45;;;13.60;99.90;;;;;;4987198;28;20401;-82
2022/05/26 01:13:21;;;;;;;44.08;9.77;;;13.60;99.90;;;;;;4986265;28;20038;-82
2022/05/26 01:16:05;;;;;;;39.15;9.23;;;13.80;99.90;;;;;;4986709;28;20046;-82
2022/05/26 01:19:00;;;;;;;41.03;9.30;;;13.60;99.90;;;;;;4986318;28;20474;-82
2022/05/26 01:21:35;;;;;;;38.33;9.25;;;13.60;99.90;;;;;;4951154;28;20520;-82
2022/05/26 01:24:12;;;;;;;45.03;10.00;;;13.50;99.90;;;;;;4987245;28;20046;-82
2022/05/26 01:27:24;;;;;;;44.80;9.50;;;13.50;99.90;;;;;;4969512;28;20042;-81
2022/05/26 01:30:11;;;;;;;45.33;8.63;;;13.50;99.90;;;;;;4970528;28;20064;-82
2022/05/26 01:32:49;;;;;;;41.33;8.98;;;13.60;99.90;;;;;;4985819;28;20073;-81
2022/05/26 01:35:21;;;;;;;41.40;9.40;;;13.50;99.90;;;;;;4970355;28;20074;-82
2022/05/26 01:38:25;;;;;;;36.65;8.80;;;13.60;99.90;;;;;;4970245;28;20108;-81
2022/05/26 01:41:06;;;;;;;41.00;9.68;;;13.50;99.90;;;;;;4971595;28;20050;-82
2022/05/26 01:43:54;;;;;;;37.05;8.82;;;13.50;99.90;;;;;;4969508;28;20049;-82
2022/05/26 01:46:36;;;;;;;44.85;10.02;;;13.50;99.90;;;;;;4969465;28;20050;-82
2022/05/26 01:49:10;;;;;;;36.42;8.65;;;13.60;99.90;;;;;;4969366;28;20038;-82
2022/05/26 01:52:09;;;;;;;32.63;8.60;;;13.60;99.90;;;;;;4970330;28;20046;-81
2022/05/26 01:55:06;;;;;;;47.92;9.15;;;13.60;99.90;;;;;;4986666;28;20097;-82
2022/05/26 01:57:51;;;;;;;44.83;9.10;;;13.60;99.90;;;;;;4874502;29;20112;-81
2022/05/26 02:00:19;;;;;;;35.33;8.48;;;13.60;99.90;;;;;;4890246;29;20056;-82
2022/05/26 02:03:01;;;;;;;34.67;8.25;;;13.60;99.90;;;;;;4889697;29;20417;-81
2022/05/26 02:05:31;;;;;;;28.30;6.72;;;13.60;99.90;;;;;;4890831;29;20057;-82
2022/05/26 02:08:06;;;;;;;43.13;8.18;;;13.60;99.90;;;;;;4890428;29;20061;-81
2022/05/26 02:10:45;;;;;;;24.92;5.32;;;13.60;99.90;;;;;;4889287;29;20163;-82
2022/05/26 02:13:22;;;;;;;25.15;5.35;;;13.70;99.90;;;;;;4890038;29;20049;-81
2022/05/26 02:15:54;;;;;;;26.23;6.90;;;13.50;99.90;;;;;;4859982;29;20052;-82
2022/05/26 02:18:32;;;;;;;20.85;5.20;;;13.60;99.90;;;;;;4890226;29;20069;-81
2022/05/26 02:21:03;;;;;;;29.00;5.85;;;13.50;99.90;;;;;;4888169;29;20060;-82
2022/05/26 02:23:36;;;;;;;28.98;5.03;;;13.50;99.90;;;;;;4889886;29;20051;-82
2022/05/26 02:26:05;;;;;;;17.95;4.80;;;13.50;99.90;;;;;;4888985;29;20449;-81
2022/05/26 02:29:51;;;;;;;28.70;5.72;;;13.90;99.90;;;;;;4873778;29;20064;-81
2022/05/26 02:31:21;;;;;;;17.42;5.35;;;13.50;99.90;;;;;;4890463;29;20064;-81
2022/05/26 02:33:47;;;;;;;24.20;5.75;;;13.70;99.90;;;;;;4913050;28;20063;-82
2022/05/26 02:36:13;;;;;;;25.10;5.07;;;13.40;99.90;;;;;;4968411;28;20042;-82
2022/05/26 02:38:39;;;;;;;20.70;5.20;;;13.40;99.90;;;;;;4985209;28;20050;-81
2022/05/26 02:41:04;;;;;;;25.58;5.15;;;13.40;99.90;;;;;;4985732;28;20095;-82
2022/05/26 02:43:32;;;;;;;24.73;5.25;;;13.40;99.90;;;;;;4985887;28;20062;-81
2022/05/26 02:46:25;;;;;;;20.27;5.13;;;13.30;99.90;;;;;;4985585;28;20054;-81
2022/05/26 02:49:10;;;;;;;26.00;5.93;;;13.30;99.90;;;;;;4984753;28;20038;-81
2022/05/26 02:52:03;;;;;;;22.83;5.38;;;13.30;99.90;;;;;;4970081;28;20053;-82
2022/05/26 02:54:38;;;;;;;27.23;6.53;;;13.30;99.90;;;;;;4954604;28;20049;-81
2022/05/26 02:57:43;;;;;;;25.42;5.97;;;13.30;99.90;;;;;;4986578;28;20528;-81
2022/05/26 03:00:15;;;;;;;25.10;6.38;;;13.30;99.90;;;;;;4970127;28;20050;-81
2022/05/26 03:02:49;;;;;;;21.77;6.32;;;13.20;99.90;;;;;;4985311;28;20049;-81
2022/05/26 03:05:46;;;;;;;24.65;5.30;;;13.20;99.90;;;;;;4969338;28;20047;-81
2022/05/26 03:08:19;;;;;;;20.83;5.70;;;13.10;99.90;;;;;;4977092;28;20042;-82
2022/05/26 03:10:51;;;;;;;25.02;5.95;;;13.10;99.90;;;;;;4985863;28;20054;-82
2022/05/26 03:13:17;;;;;;;28.17;6.05;;;13.10;99.90;;;;;;4984528;28;20042;-81
2022/05/26 03:15:43;;;;;;;21.33;5.60;;;13.00;99.90;;;;;;4969649;28;20031;-81
2022/05/26 03:18:09;;;;;;;22.55;5.70;;;13.30;99.90;;;;;;4985581;28;20046;-82
2022/05/26 03:20:36;;;;;;;15.25;4.38;;;13.00;99.90;;;;;;4985088;28;20046;-82
2022/05/26 03:23:02;;;;;;;15.90;3.80;;;12.90;99.90;;;;;;4985298;28;20129;-82
2022/05/26 03:25:28;;;;;;;14.15;3.80;;;12.90;99.90;;;;;;4984598;28;20052;-81
2022/05/26 03:27:54;;;;;;;17.98;3.72;;;12.80;99.90;;;;;;4968074;28;20129;-81
2022/05/26 03:30:20;;;;;;;15.98;3.80;;;12.80;99.90;;;;;;4984498;28;20046;-82
2022/05/26 03:32:46;;;;;;;13.20;3.03;;;12.70;99.90;;;;;;4967389;28;20054;-81
2022/05/26 03:40:55;;;;;;;16.30;4.35;;;12.50;99.90;;;;;;4983446;28;20050;-81
2022/05/26 03:43:28;;;;;;;13.93;2.90;;;12.60;99.90;;;;;;4984436;28;20077;-81
2022/05/26 03:45:54;;;;;;;10.90;2.72;;;12.40;99.90;;;;;;4984928;28;20042;-81
2022/05/26 03:48:19;;;;;;;14.80;2.85;;;12.20;99.90;;;;;;4984854;28;20482;-81
2022/05/26 03:50:45;;;;;;;8.90;2.80;;;12.20;99.90;;;;;;4985145;28;20510;-81
2022/05/26 03:53:11;;;;;;;9.52;2.55;;;12.20;99.90;;;;;;4968384;28;20085;-82
2022/05/26 03:55:36;;;;;;;10.52;2.20;;;12.70;99.90;;;;;;4984398;28;20176;-81
2022/05/26 03:58:03;;;;;;;9.00;2.20;;;12.20;99.90;;;;;;4967906;28;20053;-81
2022/05/26 04:00:30;;;;;;;8.05;2.00;;;12.10;99.90;;;;;;4983436;28;20077;-82
2022/05/26 04:02:55;;;;;;;8.05;1.85;;;12.10;99.90;;;;;;4983918;28;20129;-81
2022/05/26 04:05:21;;;;;;;6.47;1.90;;;12.10;99.90;;;;;;4967385;28;20086;-82
2022/05/26 04:07:47;;;;;;;8.40;1.90;;;12.10;99.90;;;;;;4984111;28;20108;-81
2022/05/26 04:10:14;;;;;;;8.20;1.90;;;12.10;99.90;;;;;;4983955;28;20050;-81
2022/05/26 04:12:42;;;;;;;6.13;1.92;;;12.10;99.90;;;;;;4984582;28;20035;-81
2022/05/26 04:15:09;;;;;;;10.82;2.03;;;12.30;99.90;;;;;;4985146;28;20046;-82
2022/05/26 04:17:36;;;;;;;6.15;2.10;;;12.10;99.90;;;;;;4967442;28;20038;-81
2022/05/26 04:20:02;;;;;;;9.32;2.00;;;12.30;99.90;;;;;;4968584;28;20046;-82
2022/05/26 04:22:29;;;;;;;7.28;1.67;;;12.10;99.90;;;;;;4983351;28;20076;-81
2022/05/26 04:24:57;;;;;;;7.75;1.48;;;12.20;99.90;;;;;;4984506;28;20043;-81
2022/05/26 04:27:26;;;;;;;5.85;1.30;;;12.20;99.90;;;;;;4969327;28;20043;-81
2022/05/26 04:29:52;;;;;;;6.82;1.58;;;12.20;99.90;;;;;;4968474;28;20122;-81
2022/05/26 04:32:18;;;;;;;6.13;1.88;;;12.40;99.90;;;;;;4984279;28;20042;-81
2022/05/26 04:34:48;;;;;;;4.95;1.48;;;12.30;99.90;;;;;;4982362;28;20046;-81
2022/05/26 04:37:22;;;;;;;6.60;1.70;;;12.30;99.90;;;;;;4983307;28;20078;-82
2022/05/26 04:39:47;;;;;;;5.55;1.60;;;12.30;99.90;;;;;;4985112;28;20456;-81
2022/05/26 04:42:13;;;;;;;6.18;1.58;;;12.30;99.90;;;;;;4984681;28;20056;-81
2022/05/26 04:44:43;;;;;;;6.60;1.45;;;12.40;99.90;;;;;;4986407;28;20035;-82
2022/05/26 04:47:09;;;;;;;5.95;1.73;;;12.40;99.90;;;;;;4988906;28;20046;-82
2022/05/26 04:49:37;;;;;;;6.03;1.45;;;12.40;99.90;;;;;;4972565;28;20499;-82
2022/05/26 04:52:05;;;;;;;5.60;1.67;;;12.50;99.90;;;;;;4988423;28;20074;-82
2022/05/26 04:54:30;;;;;;;5.07;1.30;;;12.60;99.90;;;;;;4988448;28;20065;-81
2022/05/26 04:56:58;;;;;;;4.63;1.95;;;12.60;99.90;;;;;;4987329;28;20038;-82
2022/05/26 04:59:24;;;;;;;6.80;1.98;;;12.70;99.90;;;;;;4987436;28;20080;-81
2022/05/26 05:01:50;;;;;;;5.25;1.50;;;12.70;99.90;;;;;;4988248;28;20046;-82
2022/05/26 05:04:15;;;;;;;7.18;2.00;;;12.70;99.90;;;;;;4987558;28;20088;-81
2022/05/26 05:06:41;;;;;;;8.40;2.45;;;12.80;99.90;;;;;;4987040;28;20102;-81
2022/05/26 05:09:07;;;;;;;4.50;1.48;;;12.90;99.90;;;;;;4987258;28;20046;-81
2022/05/26 05:11:36;;;;;;;6.43;1.40;;;12.90;99.90;;;;;;4987679;28;20081;-81
2022/05/26 05:14:03;;;;;;;7.18;1.90;;;13.00;99.90;;;;;;4971275;28;20042;-81
2022/05/26 05:16:32;;;;;;;5.82;1.30;;;13.00;99.90;;;;;;4987683;28;20382;-81
2022/05/26 05:18:58;;;;;;;6.10;1.33;;;13.10;99.90;;;;;;4986868;28;20061;-81
2022/05/26 05:21:29;;;;;;;6.97;1.67;;;13.20;99.90;;;;;;4987215;28;20046;-81
2022/05/26 05:24:06;;;;;;;8.48;1.35;;;13.20;99.90;;;;;;4986799;28;20058;-81
2022/05/26 05:26:36;;;;;;;7.65;1.60;;;13.30;99.90;;;;;;4970268;28;20065;-81
2022/05/26 05:29:08;;;;;;;4.13;1.10;;;13.30;99.90;;;;;;4970053;28;20046;-81
2022/05/26 05:31:41;;;;;;;5.85;1.40;;;13.40;99.90;;;;;;4986343;28;20136;-81
2022/05/26 05:34:12;;;;;;;4.43;1.25;;;13.50;99.90;;;;;;4970990;28;20050;-81
2022/05/26 05:36:39;;;;;;;7.70;1.42;;;13.90;99.90;;;;;;4986277;28;20485;-81
2022/05/26 05:39:04;;;;;;;4.72;1.30;;;13.60;99.90;;;;;;4986430;28;20177;-82
2022/05/26 05:41:33;;;;;;;3.90;1.10;;;13.50;99.90;;;;;;4969267;28;20078;-82
2022/05/26 05:44:00;;;;;;;4.07;1.40;;;13.70;99.90;;;;;;4969217;28;20541;-82
2022/05/26 05:46:33;;;;;;;6.03;1.60;;;13.60;99.90;;;;;;4985091;28;20050;-82
2022/05/26 05:49:04;;;;;;;5.43;1.52;;;13.60;99.90;;;;;;4986094;28;20038;-81
2022/05/26 05:51:31;;;;;;;6.03;1.40;;;13.80;99.90;;;;;;4985489;28;20054;-81
2022/05/26 05:53:56;;;;;;;5.53;1.10;;;13.90;99.90;;;;;;4984371;28;20125;-82
2022/05/26 05:56:22;;;;;;;5.82;1.10;;;14.00;99.90;;;;;;4982949;28;20046;-82
2022/05/26 05:58:47;;;;;;;5.18;1.42;;;14.10;99.90;;;;;;4985215;28;20445;-81
2022/05/26 06:01:13;;;;;;;5.85;1.05;;;14.30;99.90;;;;;;4967832;28;20104;-82
2022/05/26 06:03:39;;;;;;;5.25;1.13;;;14.50;99.90;;;;;;4984396;28;20046;-82
2022/05/26 06:06:07;;;;;;;4.60;1.25;;;14.80;99.90;;;;;;4983621;28;20141;-82
2022/05/26 06:08:33;;;;;;;3.42;1.30;;;14.60;99.90;;;;;;4979333;28;20062;-82
2022/05/26 06:10:59;;;;;;;4.38;0.90;;;14.70;99.90;;;;;;4979893;28;20058;-82
2022/05/26 06:13:26;;;;;;;5.28;1.10;;;14.70;99.90;;;;;;4980560;28;20050;-82
2022/05/26 06:15:52;;;;;;;5.03;1.00;;;14.70;99.90;;;;;;4981744;28;20070;-82
2022/05/26 06:18:18;;;;;;;4.13;1.30;;;14.60;99.90;;;;;;4982737;28;20482;-81
2022/05/26 06:20:44;;;;;;;4.65;1.00;;;14.60;99.90;;;;;;4981031;28;20055;-82
2022/05/26 06:23:09;;;;;;;6.72;1.30;;;14.50;99.90;;;;;;4980696;28;20046;-82
2022/05/26 06:25:35;;;;;;;3.72;1.15;;;14.50;99.90;;;;;;4963077;28;20047;-82
2022/05/26 06:30:45;;;;;;;5.82;1.30;;;14.50;99.90;;;;;;4977764;28;20050;-82
2022/05/26 06:38:43;;;;;;;6.07;1.77;;;14.80;99.90;;;;;;4981638;28;20051;-81
2022/05/26 06:44:02;;;;;;;7.05;1.30;;;14.90;99.90;;;;;;4982545;28;20371;-81
2022/05/26 06:46:28;;;;;;;4.88;1.15;;;15.10;99.90;;;;;;4965086;28;20070;-81
2022/05/26 06:48:54;;;;;;;5.07;0.90;;;15.00;99.90;;;;;;4981676;28;20102;-81
2022/05/26 06:51:19;;;;;;;4.65;0.95;;;15.00;99.90;;;;;;4982008;28;20379;-82
2022/05/26 06:53:45;;;;;;;6.82;0.95;;;15.10;99.90;;;;;;4981416;28;20438;-81
2022/05/26 06:56:17;;;;;;;3.70;0.93;;;15.10;99.90;;;;;;4981741;28;20043;-81
2022/05/26 06:58:42;;;;;;;8.75;1.27;;;15.10;99.90;;;;;;4982128;28;20046;-81
2022/05/26 07:01:08;;;;;;;4.40;0.88;;;15.20;99.90;;;;;;4966565;28;20137;-81
2022/05/26 07:03:34;;;;;;;5.07;1.10;;;15.10;99.90;;;;;;4983386;28;20046;-81
2022/05/26 07:06:00;;;;;;;4.47;1.00;;;15.60;99.90;;;;;;4982169;28;20125;-81
2022/05/26 07:08:26;;;;;;;4.47;1.05;;;15.20;99.90;;;;;;4965839;28;20058;-81
2022/05/26 07:10:54;;;;;;;4.82;1.08;;;15.30;99.90;;;;;;4982500;28;20393;-81
2022/05/26 07:13:20;;;;;;;3.47;0.90;;;15.30;99.90;;;;;;4982850;28;20130;-81
2022/05/26 07:15:46;;;;;;;5.72;1.08;;;15.40;99.90;;;;;;4982074;28;20046;-80
2022/05/26 07:18:12;;;;;;;4.15;1.00;;;15.50;99.90;;;;;;4982544;28;20569;-80
2022/05/26 07:20:38;;;;;;;5.47;1.00;;;15.40;99.90;;;;;;4982672;28;20189;-81
2022/05/26 07:23:08;;;;;;;6.20;1.27;;;15.50;99.90;;;;;;4982507;28;20042;-81
2022/05/26 07:25:43;;;;;;;5.57;1.20;;;15.60;99.90;;;;;;4982208;28;20137;-80
2022/05/26 07:28:08;;;;;;;;;;;15.60;99.90;;;;;;4983394;28;20046;-80
2022/05/26 07:30:34;;;;;;;4.03;1.05;;;15.70;99.90;;;;;;4966321;28;20359;-80
2022/05/26 07:33:00;;;;;;;4.32;1.20;;;16.20;99.90;;;;;;4982289;28;20042;-80
2022/05/26 07:35:26;;;;;;;4.82;1.00;;;15.90;99.90;;;;;;4966292;28;20047;-80
2022/05/26 07:43:20;;;;;;;4.13;0.93;;;16.60;99.90;;;;;;4980994;28;20114;-80
2022/05/26 07:45:48;;;;;;;6.40;1.10;;;16.90;99.90;;;;;;4981721;28;20046;-80
2022/05/26 07:48:13;;;;;;;5.22;0.95;;;17.20;99.90;;;;;;4981722;28;20388;-80
2022/05/26 07:50:39;;;;;;;3.55;1.13;;;17.40;99.90;;;;;;4981582;28;20050;-82
2022/05/26 07:53:04;;;;;;;2.30;0.90;;;17.70;99.90;;;;;;4964760;28;20046;-81
2022/05/26 07:55:32;;;;;;;2.58;0.88;;;17.70;99.90;;;;;;4981511;28;20045;-81
2022/05/26 07:57:58;;;;;;;6.93;1.33;;;17.80;99.90;;;;;;4981763;28;20046;-81
2022/05/26 08:00:24;;;;;;;5.72;0.82;;;17.70;99.90;;;;;;4964409;28;20125;-80
2022/05/26 08:02:49;;;;;;;3.83;0.80;;;17.50;99.90;;;;;;4980242;28;20047;-81
2022/05/26 08:05:15;;;;;;;5.10;1.00;;;17.70;99.90;;;;;;4980194;28;20046;-79
2022/05/26 08:07:41;;;;;;;3.47;1.00;;;17.80;99.90;;;;;;4980500;28;20111;-80
2022/05/26 08:10:08;;;;;;;3.08;0.90;;;18.00;99.90;;;;;;4980241;28;20494;-80
2022/05/26 08:12:33;;;;;;;5.10;1.30;;;18.20;99.90;;;;;;4979627;28;20054;-80
2022/05/26 08:14:59;;;;;;;4.05;1.00;;;18.40;99.90;;;;;;4964609;28;20038;-80
2022/05/26 08:17:24;;;;;;;4.70;1.17;;;18.50;99.90;;;;;;4981093;28;20054;-79
2022/05/26 08:19:51;;;;;;;3.40;0.75;;;18.60;99.90;;;;;;4985429;28;20049;-80
2022/05/26 08:22:18;;;;;;;4.25;1.00;;;18.60;99.90;;;;;;4985312;28;20502;-80
2022/05/26 08:24:52;;;;;;;4.28;0.90;;;18.60;99.90;;;;;;4985401;28;20086;-80
2022/05/26 08:27:18;;;;;;;3.10;0.82;;;18.40;99.90;;;;;;4969818;28;20051;-81
2022/05/26 08:29:44;;;;;;;3.13;0.75;;;18.50;99.90;;;;;;4984806;28;20043;-81
2022/05/26 08:32:10;;;;;;;2.20;0.68;;;18.40;99.90;;;;;;4984048;28;20046;-80
2022/05/26 08:34:35;;;;;;;3.47;0.90;;;18.40;99.90;;;;;;5000212;23;20078;-80
2022/05/26 08:37:03;;;;;;;3.95;0.80;;;18.30;99.90;;;;;;4984789;23;20047;-82
2022/05/26 08:39:31;;;;;;;6.97;1.10;;;18.30;99.90;;;;;;4987439;23;20146;-81
2022/05/26 08:41:57;;;;;;;3.33;0.77;;;18.20;99.90;;;;;;4978952;23;20046;-81
2022/05/26 08:44:30;;;;;;;3.88;0.90;;;18.20;99.90;;;;;;4979301;23;20572;-81
2022/05/26 08:47:04;;;;;;;3.92;0.88;;;18.00;99.90;;;;;;4988061;23;20058;-81
2022/05/26 08:49:50;;;;;;;4.25;0.88;;;18.00;99.90;;;;;;4980805;23;20043;-81
2022/05/26 08:52:19;;;;;;;3.35;0.77;;;17.80;99.90;;;;;;4976281;23;20110;-81
2022/05/26 08:54:50;;;;;;;2.33;0.80;;;17.90;99.90;;;;;;4968950;28;20066;-82
2022/05/26 08:57:23;;;;;;;5.07;1.00;;;18.00;99.90;;;;;;4979018;23;20047;-82
2022/05/26 08:59:49;;;;;;;3.30;0.80;;;18.00;99.90;;;;;;4989126;23;20055;-81
2022/05/26 09:02:28;;;;;;;4.22;0.93;;;18.00;99.90;;;;;;4991392;23;20048;-80
2022/05/26 09:05:00;;;;;;;3.45;0.70;;;18.00;99.90;;;;;;4969108;28;20065;-80
2022/05/26 09:13:13;;;;;;;3.67;0.55;;;18.50;99.90;;;;;;4985243;28;20046;-80
2022/05/26 09:15:41;;;;;;;5.75;0.80;;;18.50;99.90;;;;;;4970509;28;20078;-80
2022/05/26 09:18:16;;;;;;;2.72;0.73;;;18.20;99.90;;;;;;4992782;23;20414;-81
2022/05/26 09:20:44;;;;;;;2.97;0.70;;;18.00;99.90;;;;;;4975996;23;20074;-81
2022/05/26 09:23:27;;;;;;;7.13;1.10;;;17.90;99.90;;;;;;4970176;28;20141;-81
2022/05/26 09:28:31;;;;;;;3.75;0.88;;;18.20;99.90;;;;;;5011517;23;20062;-82
2022/05/26 09:31:24;;;;;;;3.40;0.82;;;18.60;99.90;;;;;;4976469;23;20057;-82
2022/05/26 09:34:09;;;;;;;5.00;1.00;;;19.00;99.90;;;;;;4969458;28;20114;-81
2022/05/26 09:36:55;;;;;;;4.60;1.00;;;19.30;99.90;;;;;;4975971;23;20046;-83
2022/05/26 09:39:34;;;;;;;4.68;1.00;;;19.40;99.90;;;;;;4984338;28;20145;-81
2022/05/26 09:42:03;;;;;;;6.22;1.02;;;19.30;99.90;;;;;;4990485;28;20042;-82
2022/05/26 09:44:44;;;;;;;3.38;0.82;;;19.20;99.90;;;;;;4970961;28;20485;-82
2022/05/26 09:47:21;;;;;;;3.72;0.80;;;19.30;99.90;;;;;;4968220;28;20085;-81
2022/05/26 09:49:51;;;;;;;4.63;1.27;;;19.50;99.90;;;;;;4968204;28;20478;-82
2022/05/26 09:52:23;;;;;;;2.10;0.90;;;19.70;99.90;;;;;;4998182;23;20047;-85
2022/05/26 09:55:30;;;;;;;4.05;1.08;;;19.90;99.90;;;;;;4994372;23;20050;-89
2022/05/26 09:58:12;;;;;;;3.63;1.10;;;20.30;99.90;;;;;;4998368;23;20074;-92
2022/05/26 10:00:48;;;;;;;4.78;1.20;;;20.50;99.90;;;;;;4965178;28;20061;-92
2022/05/26 10:03:26;;;;;;;3.75;1.10;;;20.30;99.90;;;;;;4977729;28;20042;-90
2022/05/26 10:06:06;;;;;;;4.70;1.20;;;19.90;99.90;;;;;;4979298;28;20055;-90
2022/05/26 10:08:45;;;;;;;4.03;1.50;;;19.90;99.90;;;;;;4980128;28;20137;-92
2022/05/26 10:11:23;;;;;;;5.53;1.52;;;19.70;99.90;;;;;;4965770;28;20072;-89
2022/05/26 10:13:55;;;;;;;4.72;1.58;;;19.70;99.90;;;;;;4965029;28;20046;-91
2022/05/26 10:16:45;;;;;;;3.08;1.33;;;19.40;99.90;;;;;;4979222;28;20436;-91
2022/05/26 10:19:36;;;;;;;6.68;1.65;;;19.30;99.90;;;;;;4980344;28;20120;-91
2022/05/26 10:22:19;;;;;;;5.22;1.40;;;19.30;99.90;;;;;;4963266;28;20046;-90
2022/05/26 10:25:00;;;;;;;4.43;1.55;;;19.50;99.90;;;;;;4960232;28;20050;-88
2022/05/26 10:27:54;;;;;;;4.00;1.52;;;19.60;99.90;;;;;;4979524;28;20513;-91
2022/05/26 10:30:57;;;;;;;5.07;1.67;;;19.60;99.90;;;;;;4962851;28;20421;-89
2022/05/26 10:33:45;;;;;;;6.55;1.65;;;19.70;99.90;;;;;;4962149;28;20371;-90
2022/05/26 10:36:40;;;;;;;4.25;1.52;;;19.50;99.90;;;;;;4963583;28;20049;-90
2022/05/26 10:39:30;;;;;;;4.88;1.60;;;19.10;99.90;;;;;;4904066;29;20048;-91
2022/05/26 10:42:18;;;;;;;4.15;1.40;;;19.00;99.90;;;;;;4920304;29;20052;-92
2022/05/26 10:44:55;;;;;;;5.10;1.70;;;19.10;99.90;;;;;;4903650;29;20525;-91
2022/05/26 10:47:30;;;;;;;5.28;1.65;;;19.10;99.90;;;;;;4904211;29;20091;-91
2022/05/26 10:50:06;;;;;;;7.97;1.88;;;19.40;99.90;;;;;;4904202;29;20058;-90
2022/05/26 10:52:38;;;;;;;3.35;1.50;;;19.70;99.90;;;;;;4920709;29;20043;-91
2022/05/26 10:55:15;;;;;;;5.97;1.65;;;20.00;99.90;;;;;;4919987;29;20130;-90
2022/05/26 10:57:52;;;;;;;5.35;1.25;;;20.20;99.90;;;;;;4904189;29;20130;-90
2022/05/26 11:00:24;;;;;;;5.50;1.85;;;20.20;99.90;;;;;;4919549;29;20106;-89
2022/05/26 11:03:20;;;;;;;4.72;1.10;;;20.20;99.90;;;;;;4901073;29;20055;-91
2022/05/26 11:05:54;;;;;;;4.15;1.33;;;20.30;99.90;;;;;;4904350;29;20138;-91
2022/05/26 11:08:46;;;;;;;5.23;1.47;;;20.30;99.90;;;;;;4919900;29;20051;-91
2022/05/26 11:11:21;;;;;;;6.95;1.27;;;20.50;99.90;;;;;;4938777;23;20173;-90
2022/05/26 11:13:55;;;;;;;3.05;1.15;;;20.60;99.90;;;;;;4978905;28;20104;-89
2022/05/26 11:19:37;;;;;;;4.88;1.33;;;20.50;99.90;;;;;;4977678;28;20088;-91
2022/05/26 11:22:04;;;;;;;6.93;1.70;;;20.10;99.90;;;;;;4961199;28;20034;-89
2022/05/26 11:24:30;;;;;;;5.43;1.52;;;19.90;99.90;;;;;;4965859;28;20043;-89
2022/05/26 11:27:14;;;;;;;7.20;2.10;;;19.70;99.90;;;;;;4969989;28;20061;-88
2022/05/26 11:29:45;;;;;;;9.93;1.92;;;19.50;99.90;;;;;;4977517;28;20386;-89
2022/05/26 11:38:09;;;;;;;5.80;1.90;;;19.40;99.90;;;;;;4977835;28;20046;-90
2022/05/26 11:41:22;;;;;;;5.90;1.80;;;19.80;99.90;;;;;;4961105;28;20050;-90
2022/05/26 11:44:07;;;;;;;5.97;1.65;;;19.90;99.90;;;;;;4865684;29;20060;-91
2022/05/26 11:46:41;;;;;;;5.55;1.70;;;19.90;99.90;;;;;;4864921;29;20060;-90
2022/05/26 11:49:11;;;;;;;4.30;1.70;;;20.20;99.90;;;;;;4880752;29;20055;-91
2022/05/26 11:51:42;;;;;;;8.13;2.50;;;20.30;99.90;;;;;;4865000;29;20052;-89
2022/05/26 11:54:09;;;;;;;5.60;1.63;;;20.20;99.90;;;;;;4865904;29;20088;-88
2022/05/26 11:56:43;;;;;;;6.65;1.70;;;19.80;99.90;;;;;;4865278;29;20045;-90
2022/05/26 11:59:32;;;;;;;5.87;1.50;;;19.50;99.90;;;;;;4865477;29;20060;-91
2022/05/26 12:02:00;;;;;;;8.77;1.67;;;19.40;99.90;;;;;;4896384;29;20305;-91
2022/05/26 12:04:42;;;;;;;4.90;1.67;;;19.40;99.90;;;;;;4896069;29;20418;-91
2022/05/26 12:09:54;;;;;;;7.88;1.83;;;19.50;99.90;;;;;;4973410;28;20513;-83
2022/05/26 12:12:23;;;;;;;6.88;2.00;;;19.60;99.90;;;;;;4961414;28;20042;-79
2022/05/26 12:14:52;;;;;;;10.48;1.92;;;19.60;99.90;;;;;;4947880;28;20133;-80
2022/05/26 12:17:30;;;;;;;5.50;1.90;;;19.50;99.90;;;;;;4963568;28;20074;-78
2022/05/26 12:19:58;;;;;;;6.88;1.45;;;19.40;99.90;;;;;;4964158;28;20043;-82
2022/05/26 12:22:36;;;;;;;6.95;1.95;;;19.50;99.90;;;;;;4947978;28;20437;-84
2022/05/26 12:25:02;;;;;;;5.88;2.00;;;19.50;99.90;;;;;;4960646;28;20046;-82
2022/05/26 12:27:55;;;;;;;6.43;2.30;;;19.30;99.90;;;;;;4946626;28;20039;-80
2022/05/26 12:30:36;;;;;;;10.75;3.28;;;19.20;99.90;;;;;;4947556;28;20039;-81
2022/05/26 12:33:21;;;;;;;7.80;2.25;;;19.00;99.90;;;;;;4947193;28;20053;-81
2022/05/26 12:35:47;;;;;;;;;;;18.80;99.90;;;;;;4964169;28;20071;-80
2022/05/26 12:38:16;;;;;;;8.60;2.15;;;19.00;99.90;;;;;;4962379;28;19922;-81
2022/05/26 12:40:46;;;;;;;10.68;2.70;;;19.00;99.90;;;;;;4947018;28;20053;-80
2022/05/26 12:43:51;;;;;;;7.13;2.25;;;18.80;99.90;;;;;;4962969;28;20050;-81
2022/05/26 12:46:46;;;;;;;7.15;2.08;;;18.90;99.90;;;;;;4963055;28;20057;-81
2022/05/26 12:49:31;;;;;;;6.82;1.70;;;18.90;99.90;;;;;;4946346;28;20090;-81
2022/05/26 12:52:12;;;;;;;5.32;1.80;;;18.80;99.90;;;;;;4961024;28;20055;-80
2022/05/26 12:54:53;;;;;;;6.00;1.58;;;19.00;99.90;;;;;;4960355;28;20509;-82
2022/05/26 12:57:23;;;;;;;7.05;1.70;;;19.30;99.90;;;;;;4960577;28;20390;-80
2022/05/26 12:59:49;;;;;;;7.65;1.75;;;19.50;99.90;;;;;;4961143;28;20486;-81
2022/05/26 13:02:16;;;;;;;4.97;1.20;;;19.50;99.90;;;;;;4944800;28;20035;-82
2022/05/26 13:04:43;;;;;;;6.93;1.60;;;19.60;99.90;;;;;;4963294;28;20039;-82
2022/05/26 13:07:10;;;;;;;4.90;1.63;;;19.50;99.90;;;;;;4967206;28;20043;-81
2022/05/26 13:09:51;;;;;;;6.78;1.77;;;19.60;99.90;;;;;;4967735;28;20137;-81
2022/05/26 13:12:20;;;;;;;6.65;1.90;;;19.40;99.90;;;;;;4967380;28;20038;-81
2022/05/26 13:14:49;;;;;;;6.55;1.67;;;19.30;99.90;;;;;;4967590;28;20723;-80
2022/05/26 13:17:27;;;;;;;8.15;1.55;;;19.40;99.90;;;;;;4967417;28;20042;-82
2022/05/26 13:19:56;;;;;;;6.47;1.45;;;19.40;99.90;;;;;;4966894;28;20046;-82
2022/05/26 13:22:28;;;;;;;6.57;1.80;;;19.30;99.90;;;;;;4967618;28;20375;-80
2022/05/26 13:25:04;;;;;;;6.47;1.58;;;19.20;99.90;;;;;;4967535;28;20039;-82
2022/05/26 13:27:51;;;;;;;5.28;1.67;;;19.10;99.90;;;;;;4952063;28;20046;-81
2022/05/26 13:33:13;;;;;;;5.03;1.75;;;19.00;99.90;;;;;;4966581;28;20047;-80
2022/05/26 13:35:46;;;;;;;7.45;1.90;;;19.10;99.90;;;;;;4967238;28;20035;-80
2022/05/26 13:38:51;;;;;;;5.00;1.50;;;19.20;99.90;;;;;;4964463;28;20590;-80
2022/05/26 13:41:28;;;;;;;8.05;1.92;;;19.10;99.90;;;;;;4885572;29;20094;-79
2022/05/26 13:43:55;;;;;;;6.22;1.92;;;19.10;99.90;;;;;;4888816;29;20052;-81
2022/05/26 13:46:36;;;;;;;5.55;1.50;;;19.10;99.90;;;;;;4889131;29;20093;-79
2022/05/26 13:49:23;;;;;;;7.68;2.35;;;19.00;99.90;;;;;;4905695;29;20551;-80
2022/05/26 13:51:51;;;;;;;5.95;1.67;;;18.90;99.90;;;;;;4875325;29;20076;-81
2022/05/26 13:54:31;;;;;;;5.03;1.67;;;18.90;99.90;;;;;;4888289;29;20047;-81
2022/05/26 13:57:02;;;;;;;6.82;2.13;;;18.70;99.90;;;;;;4890008;29;20056;-80
2022/05/26 13:59:42;;;;;;;8.07;1.88;;;18.50;99.90;;;;;;4874875;29;20041;-82